createdAt,value
2022-10-07T00:01:06.438Z,83.79
2022-10-07T00:03:23.689Z,83.62
2022-10-07T00:05:40.941Z,83.70
2022-10-07T00:07:57.914Z,83.92
2022-10-07T00:10:17.284Z,83.91
2022-10-07T00:12:34.180Z,83.64
2022-10-07T00:14:51.279Z,83.95
2022-10-07T00:17:08.501Z,83.98
2022-10-07T00:19:25.467Z,83.86
2022-10-07T00:21:42.929Z,84.04
2022-10-07T00:24:00.860Z,84.88
2022-10-07T00:26:17.745Z,85.00
2022-10-07T00:28:34.717Z,83.41
2022-10-07T00:30:53.020Z,84.15
2022-10-07T00:33:09.993Z,83.79
2022-10-07T00:35:26.958Z,83.71
2022-10-07T00:37:44.527Z,84.54
2022-10-07T00:40:01.654Z,84.40
2022-10-07T00:42:19.851Z,84.35
2022-10-07T00:44:37.486Z,84.17
2022-10-07T00:46:54.700Z,84.54
2022-10-07T00:49:13.489Z,83.90
2022-10-07T00:51:30.700Z,83.65
2022-10-07T00:53:47.694Z,84.71
2022-10-07T00:56:06.072Z,84.41
2022-10-07T00:58:23.111Z,84.05
2022-10-07T01:00:40.518Z,85.04
2022-10-07T01:02:57.633Z,85.00
2022-10-07T01:05:14.552Z,84.17
2022-10-07T01:07:31.630Z,84.15
2022-10-07T01:09:48.577Z,83.71
2022-10-07T01:12:05.638Z,83.17
2022-10-07T01:14:22.733Z,84.01
2022-10-07T01:16:41.021Z,83.48
2022-10-07T01:18:58.351Z,84.32
2022-10-07T01:21:15.249Z,84.06
2022-10-07T01:23:32.521Z,84.24
2022-10-07T01:25:50.791Z,84.34
2022-10-07T01:28:08.050Z,85.14
2022-10-07T01:30:25.982Z,83.83
2022-10-07T01:32:43.092Z,84.43
2022-10-07T01:35:01.252Z,84.57
2022-10-07T01:37:18.232Z,84.54
2022-10-07T01:39:35.234Z,83.91
2022-10-07T01:41:52.499Z,84.74
2022-10-07T01:44:09.490Z,83.87
2022-10-07T01:46:26.613Z,84.83
2022-10-07T01:48:44.961Z,84.41
2022-10-07T01:51:02.923Z,84.49
2022-10-07T01:53:21.225Z,84.73
2022-10-07T01:55:39.716Z,84.31
2022-10-07T01:57:57.608Z,84.61
2022-10-07T02:00:14.491Z,83.98
2022-10-07T02:02:31.757Z,83.82
2022-10-07T02:04:51.295Z,84.68
2022-10-07T02:07:09.512Z,84.92
2022-10-07T02:09:26.890Z,84.87
2022-10-07T02:11:43.831Z,84.36
2022-10-07T02:14:00.731Z,84.26
2022-10-07T02:16:17.860Z,84.46
2022-10-07T02:18:34.967Z,85.26
2022-10-07T02:20:53.575Z,84.77
2022-10-07T02:23:10.784Z,84.90
2022-10-07T02:25:28.770Z,83.83
2022-10-07T02:27:47.121Z,84.27
2022-10-07T02:30:04.388Z,84.30
2022-10-07T02:32:23.765Z,84.60
2022-10-07T02:34:42.056Z,84.20
2022-10-07T02:36:59.034Z,84.53
2022-10-07T02:39:16.274Z,85.40
2022-10-07T02:41:33.192Z,84.88
2022-10-07T02:43:50.221Z,85.50
2022-10-07T02:46:07.240Z,85.00
2022-10-07T02:48:24.425Z,85.15
2022-10-07T02:50:41.430Z,85.14
2022-10-07T02:52:59.445Z,84.08
2022-10-07T02:55:16.927Z,85.11
2022-10-07T02:57:33.843Z,84.17
2022-10-07T02:59:51.118Z,84.51
2022-10-07T03:02:08.053Z,84.91
2022-10-07T03:04:26.022Z,84.41
2022-10-07T03:06:43.308Z,84.43
2022-10-07T03:09:00.920Z,84.58
2022-10-07T03:11:18.180Z,84.96
2022-10-07T03:13:35.165Z,85.45
2022-10-07T03:15:53.569Z,85.57
2022-10-07T03:18:10.581Z,84.89
2022-10-07T03:20:27.836Z,84.57
2022-10-07T03:22:45.053Z,84.54
2022-10-07T03:25:02.639Z,84.39
2022-10-07T03:27:21.094Z,86.06
2022-10-07T03:29:38.137Z,85.35
2022-10-07T03:31:56.167Z,85.11
2022-10-07T03:34:13.157Z,84.51
2022-10-07T03:36:30.630Z,85.09
2022-10-07T03:38:49.680Z,85.59
2022-10-07T03:41:06.649Z,85.39
2022-10-07T03:43:23.896Z,85.74
2022-10-07T03:45:41.141Z,85.80
2022-10-07T03:47:58.309Z,85.56
2022-10-07T03:50:15.370Z,84.87
2022-10-07T03:52:33.372Z,84.85
2022-10-07T03:54:53.052Z,85.22
2022-10-07T03:57:12.372Z,85.51
2022-10-07T03:59:29.592Z,85.44
2022-10-07T04:01:49.729Z,85.39
2022-10-07T04:04:06.786Z,85.25
2022-10-07T04:06:23.709Z,84.95
2022-10-07T04:08:40.709Z,85.03
2022-10-07T04:10:58.992Z,85.90
2022-10-07T04:13:15.997Z,85.62
2022-10-07T04:15:32.897Z,84.88
2022-10-07T04:17:50.148Z,85.56
2022-10-07T04:20:07.266Z,84.94
2022-10-07T04:22:24.540Z,85.26
2022-10-07T04:24:41.524Z,84.73
2022-10-07T04:26:58.491Z,84.92
2022-10-07T04:29:15.749Z,84.50
2022-10-07T04:31:33.037Z,85.01
2022-10-07T04:33:50.318Z,85.62
2022-10-07T04:36:07.677Z,84.83
2022-10-07T04:38:28.270Z,85.45
2022-10-07T04:40:45.544Z,84.67
2022-10-07T04:43:02.521Z,85.22
2022-10-07T04:45:20.761Z,84.58
2022-10-07T04:47:40.704Z,85.69
2022-10-07T04:49:57.995Z,85.60
2022-10-07T04:52:15.004Z,85.47
2022-10-07T04:54:32.001Z,85.49
2022-10-07T04:56:49.241Z,85.66
2022-10-07T04:59:06.529Z,85.39
2022-10-07T05:01:23.630Z,85.45
2022-10-07T05:03:40.944Z,85.56
2022-10-07T05:06:03.336Z,85.14
2022-10-07T05:08:22.478Z,84.54
2022-10-07T05:10:39.709Z,85.08
2022-10-07T05:12:56.684Z,85.64
2022-10-07T05:15:13.670Z,85.39
2022-10-07T05:17:30.704Z,84.80
2022-10-07T05:19:47.613Z,85.01
2022-10-07T05:22:04.904Z,85.86
2022-10-07T05:24:21.812Z,86.01
2022-10-07T05:26:39.708Z,86.05
2022-10-07T05:28:57.153Z,85.59
2022-10-07T05:31:14.454Z,86.01
2022-10-07T05:33:31.577Z,86.18
2022-10-07T05:35:49.492Z,85.35
2022-10-07T05:38:06.854Z,85.83
2022-10-07T05:40:24.112Z,85.42
2022-10-07T05:42:41.099Z,85.89
2022-10-07T05:44:58.079Z,85.19
2022-10-07T05:47:15.065Z,85.97
2022-10-07T05:49:32.140Z,85.41
2022-10-07T05:51:49.278Z,85.74
2022-10-07T05:54:06.371Z,85.29
2022-10-07T05:56:23.665Z,84.97
2022-10-07T05:58:40.609Z,85.58
2022-10-07T06:01:03.868Z,85.66
2022-10-07T06:03:22.557Z,85.95
2022-10-07T06:05:39.856Z,86.14
2022-10-07T06:07:56.753Z,85.57
2022-10-07T06:10:13.936Z,85.30
2022-10-07T06:12:31.163Z,84.88
2022-10-07T06:14:48.096Z,85.84
2022-10-07T06:17:05.995Z,85.69
2022-10-07T06:19:23.005Z,85.58
2022-10-07T06:21:40.205Z,85.17
2022-10-07T06:23:57.171Z,85.90
2022-10-07T06:26:14.144Z,85.73
2022-10-07T06:28:31.288Z,86.61
2022-10-07T06:30:48.650Z,85.07
2022-10-07T06:33:05.686Z,85.50
2022-10-07T06:35:22.735Z,85.45
2022-10-07T06:37:39.949Z,85.20
2022-10-07T06:39:59.634Z,85.85
2022-10-07T06:42:17.129Z,85.21
2022-10-07T06:44:35.459Z,85.04
2022-10-07T06:46:52.429Z,85.53
2022-10-07T06:49:10.159Z,84.78
2022-10-07T06:51:27.069Z,85.54
2022-10-07T06:53:44.323Z,84.64
2022-10-07T06:56:01.580Z,84.65
2022-10-07T06:58:18.851Z,85.27
2022-10-07T07:00:35.856Z,84.94
2022-10-07T07:02:52.827Z,85.66
2022-10-07T07:05:09.820Z,84.94
2022-10-07T07:07:26.734Z,84.91
2022-10-07T07:09:44.999Z,84.55
2022-10-07T07:12:01.993Z,85.22
2022-10-07T07:14:19.034Z,85.68
2022-10-07T07:16:38.670Z,84.93
2022-10-07T07:18:55.929Z,84.48
2022-10-07T07:21:12.930Z,85.08
2022-10-07T07:23:29.872Z,84.31
2022-10-07T07:25:46.832Z,84.08
2022-10-07T07:28:05.134Z,83.60
2022-10-07T07:30:22.169Z,84.63
2022-10-07T07:32:39.085Z,85.84
2022-10-07T07:34:56.066Z,84.59
2022-10-07T07:37:13.880Z,84.35
2022-10-07T07:39:31.066Z,82.77
2022-10-07T07:41:48.047Z,82.74
2022-10-07T07:44:05.386Z,82.41
2022-10-07T07:46:22.497Z,82.52
2022-10-07T07:48:40.699Z,82.66
2022-10-07T07:50:57.941Z,82.60
2022-10-07T07:53:14.972Z,82.02
2022-10-07T07:55:32.263Z,82.23
2022-10-07T07:57:49.494Z,81.84
2022-10-07T08:00:06.490Z,82.31
2022-10-07T08:02:23.564Z,83.12
2022-10-07T08:04:40.621Z,83.27
2022-10-07T08:06:57.587Z,82.51
2022-10-07T08:09:14.887Z,81.75
2022-10-07T08:11:32.111Z,81.99
2022-10-07T08:13:50.370Z,81.74
2022-10-07T08:16:09.576Z,81.32
2022-10-07T08:18:26.820Z,81.46
2022-10-07T08:20:43.856Z,83.51
2022-10-07T08:23:00.890Z,82.60
2022-10-07T08:25:17.881Z,82.45
2022-10-07T08:27:35.189Z,83.31
2022-10-07T08:29:53.106Z,81.80
2022-10-07T08:32:10.096Z,82.04
2022-10-07T08:34:27.320Z,80.41
2022-10-07T08:36:44.403Z,81.37
2022-10-07T08:39:01.359Z,80.25
2022-10-07T08:41:18.527Z,79.49
2022-10-07T08:43:36.533Z,79.67
2022-10-07T08:45:53.434Z,79.08
2022-10-07T08:48:11.444Z,78.50
2022-10-07T08:50:28.446Z,77.18
2022-10-07T08:52:45.380Z,78.02
2022-10-07T08:55:03.564Z,76.93
2022-10-07T08:57:21.831Z,75.99
2022-10-07T08:59:38.791Z,75.75
2022-10-07T09:01:56.760Z,75.11
2022-10-07T09:04:15.834Z,74.84
2022-10-07T09:06:32.749Z,75.22
2022-10-07T09:08:50.120Z,75.04
2022-10-07T09:11:07.994Z,74.43
2022-10-07T09:13:25.115Z,73.88
2022-10-07T09:15:42.391Z,72.77
2022-10-07T09:17:59.454Z,73.12
2022-10-07T09:20:18.644Z,71.99
2022-10-07T09:22:35.933Z,71.82
2022-10-07T09:24:52.985Z,70.83
2022-10-07T09:27:09.975Z,70.64
2022-10-07T09:29:28.004Z,69.61
2022-10-07T09:31:46.376Z,68.96
2022-10-07T09:34:03.664Z,68.61
2022-10-07T09:36:20.693Z,67.15
2022-10-07T09:38:38.717Z,67.40
2022-10-07T09:40:55.717Z,69.29
2022-10-07T09:43:13.672Z,67.35
2022-10-07T09:45:31.432Z,67.97
2022-10-07T09:47:48.575Z,67.36
2022-10-07T09:50:05.760Z,66.60
2022-10-07T09:52:22.636Z,66.21
2022-10-07T09:54:39.544Z,64.90
2022-10-07T09:56:56.432Z,64.63
2022-10-07T09:59:13.320Z,64.99
2022-10-07T10:01:30.336Z,64.33
2022-10-07T10:03:47.261Z,64.50
2022-10-07T10:06:04.227Z,64.31
2022-10-07T10:08:21.155Z,65.36
2022-10-07T10:10:38.179Z,65.12
2022-10-07T10:12:55.369Z,62.33
2022-10-07T10:15:14.851Z,61.55
2022-10-07T10:17:31.811Z,61.77
2022-10-07T10:19:51.447Z,61.55
2022-10-07T10:22:08.389Z,62.05
2022-10-07T10:24:26.247Z,61.33
2022-10-07T10:26:44.467Z,59.60
2022-10-07T10:29:01.475Z,61.08
2022-10-07T10:31:18.772Z,61.27
2022-10-07T10:33:35.796Z,60.23
2022-10-07T10:35:53.130Z,59.14
2022-10-07T10:38:10.441Z,57.87
2022-10-07T10:40:28.441Z,57.25
2022-10-07T10:42:45.658Z,56.33
2022-10-07T10:45:03.097Z,56.45
2022-10-07T10:47:20.048Z,57.19
2022-10-07T10:49:38.129Z,56.39
2022-10-07T10:51:55.127Z,56.09
2022-10-07T10:54:14.458Z,55.85
2022-10-07T10:56:31.439Z,56.59
2022-10-07T10:58:48.497Z,54.87
2022-10-07T11:01:06.284Z,55.75
2022-10-07T11:03:25.004Z,54.76
2022-10-07T11:05:42.048Z,55.01
2022-10-07T11:08:01.769Z,54.48
2022-10-07T11:10:19.715Z,54.12
2022-10-07T11:12:36.881Z,53.82
2022-10-07T11:14:57.608Z,54.12
2022-10-07T11:17:16.879Z,53.78
2022-10-07T11:19:34.381Z,54.00
2022-10-07T11:21:55.442Z,54.72
2022-10-07T11:24:12.742Z,54.25
2022-10-07T11:26:33.855Z,54.10
2022-10-07T11:28:53.991Z,53.30
2022-10-07T11:31:10.943Z,52.93
2022-10-07T11:33:28.397Z,53.79
2022-10-07T11:35:45.449Z,53.38
2022-10-07T11:38:05.433Z,53.80
2022-10-07T11:40:28.192Z,52.36
2022-10-07T11:42:47.137Z,51.24
2022-10-07T11:45:04.626Z,51.26
2022-10-07T11:47:21.677Z,50.73
2022-10-07T11:49:40.347Z,50.55
2022-10-07T11:51:57.291Z,50.91
2022-10-07T11:54:14.420Z,51.72
2022-10-07T11:56:32.807Z,50.61
2022-10-07T11:58:50.094Z,50.94
2022-10-07T12:01:07.401Z,51.34
2022-10-07T12:03:24.669Z,49.28
2022-10-07T12:05:41.982Z,47.79
2022-10-07T12:07:58.945Z,49.14
2022-10-07T12:10:17.449Z,48.94
2022-10-07T12:12:35.494Z,50.32
2022-10-07T12:14:52.548Z,48.28
2022-10-07T12:17:11.000Z,46.99
2022-10-07T12:19:28.285Z,48.95
2022-10-07T12:21:45.340Z,48.82
2022-10-07T12:24:02.580Z,50.36
2022-10-07T12:26:19.595Z,48.02
2022-10-07T12:28:36.656Z,50.41
2022-10-07T12:30:54.060Z,49.76
2022-10-07T12:33:11.038Z,50.15
2022-10-07T12:35:28.029Z,48.35
2022-10-07T12:37:46.221Z,49.07
2022-10-07T12:40:03.237Z,49.15
2022-10-07T12:42:21.236Z,49.44
2022-10-07T12:44:38.328Z,49.06
2022-10-07T12:46:56.621Z,49.08
2022-10-07T12:49:13.787Z,49.19
2022-10-07T12:51:31.084Z,48.71
2022-10-07T12:53:48.051Z,49.77
2022-10-07T12:56:04.984Z,50.72
2022-10-07T12:58:22.304Z,46.68
2022-10-07T13:00:39.269Z,48.12
2022-10-07T13:02:56.277Z,49.91
2022-10-07T13:05:13.513Z,50.47
2022-10-07T13:07:30.758Z,46.34
2022-10-07T13:09:48.962Z,47.62
2022-10-07T13:12:06.200Z,48.12
2022-10-07T13:14:23.469Z,44.77
2022-10-07T13:16:40.741Z,44.40
2022-10-07T13:18:57.930Z,45.03
2022-10-07T13:21:16.264Z,45.59
2022-10-07T13:23:33.266Z,44.43
2022-10-07T13:26:05.046Z,45.85
2022-10-07T13:28:22.107Z,44.44
2022-10-07T13:30:39.090Z,46.50
2022-10-07T13:32:56.485Z,45.99
2022-10-07T13:35:13.865Z,44.97
2022-10-07T13:37:31.082Z,44.69
2022-10-07T13:39:48.224Z,45.32
2022-10-07T13:42:05.476Z,45.11
2022-10-07T13:44:23.492Z,47.49
2022-10-07T13:46:41.473Z,45.95
2022-10-07T13:48:59.760Z,47.19
2022-10-07T13:51:16.720Z,46.15
2022-10-07T13:53:33.728Z,45.82
2022-10-07T13:55:52.011Z,46.75
2022-10-07T13:58:08.969Z,47.06
2022-10-07T14:00:27.995Z,45.34
2022-10-07T14:02:45.381Z,45.04
2022-10-07T14:05:04.301Z,46.57
2022-10-07T14:07:21.295Z,47.27
2022-10-07T14:09:38.172Z,46.80
2022-10-07T14:11:55.162Z,49.05
2022-10-07T14:14:13.173Z,47.90
2022-10-07T14:16:30.400Z,48.74
2022-10-07T14:18:47.769Z,46.86
2022-10-07T14:21:04.730Z,48.02
2022-10-07T14:23:22.029Z,47.66
2022-10-07T14:25:43.596Z,46.44
2022-10-07T14:28:03.196Z,46.70
2022-10-07T14:30:20.731Z,47.49
2022-10-07T14:32:37.646Z,48.78
2022-10-07T14:34:54.648Z,50.91
2022-10-07T14:37:11.896Z,50.54
2022-10-07T14:39:29.117Z,48.55
2022-10-07T14:41:46.401Z,50.57
2022-10-07T14:44:05.539Z,52.76
2022-10-07T14:46:23.622Z,54.11
2022-10-07T14:48:40.682Z,55.28
2022-10-07T14:50:58.646Z,52.43
2022-10-07T14:53:15.736Z,54.47
2022-10-07T14:55:33.126Z,56.13
2022-10-07T14:57:52.639Z,54.02
2022-10-07T15:00:09.998Z,54.67
2022-10-07T15:02:27.401Z,53.32
2022-10-07T15:04:44.742Z,54.09
2022-10-07T15:07:01.898Z,55.00
2022-10-07T15:09:19.051Z,55.24
2022-10-07T15:11:37.275Z,56.47
2022-10-07T15:13:55.604Z,55.91
2022-10-07T15:16:12.488Z,55.58
2022-10-07T15:18:29.886Z,53.81
2022-10-07T15:20:47.148Z,53.17
2022-10-07T15:23:04.460Z,54.07
2022-10-07T15:25:21.707Z,52.58
2022-10-07T15:27:38.706Z,49.45
2022-10-07T15:29:55.722Z,47.95
2022-10-07T15:32:12.707Z,46.69
2022-10-07T15:34:32.073Z,47.02
2022-10-07T15:36:49.352Z,48.61
2022-10-07T15:39:06.982Z,55.35
2022-10-07T15:41:23.860Z,56.43
2022-10-07T15:43:41.104Z,57.62
2022-10-07T15:45:58.363Z,58.66
2022-10-07T15:48:15.503Z,58.19
2022-10-07T15:50:32.464Z,60.64
2022-10-07T15:52:49.394Z,60.99
2022-10-07T15:55:07.732Z,61.38
2022-10-07T15:57:26.168Z,62.49
2022-10-07T15:59:43.181Z,62.30
2022-10-07T16:02:01.507Z,63.36
2022-10-07T16:04:18.557Z,63.79
2022-10-07T16:06:35.864Z,66.50
2022-10-07T16:08:53.134Z,64.50
2022-10-07T16:11:11.159Z,64.50
2022-10-07T16:13:28.403Z,65.76
2022-10-07T16:15:45.805Z,65.74
2022-10-07T16:18:03.078Z,66.26
2022-10-07T16:20:21.130Z,68.20
2022-10-07T16:22:38.038Z,68.77
2022-10-07T16:24:56.075Z,69.26
2022-10-07T16:27:13.070Z,68.69
2022-10-07T16:29:30.300Z,69.34
2022-10-07T16:31:47.279Z,69.58
2022-10-07T16:34:04.729Z,70.01
2022-10-07T16:36:24.190Z,70.92
2022-10-07T16:38:41.424Z,70.94
2022-10-07T16:40:59.659Z,72.12
2022-10-07T16:43:16.577Z,72.50
2022-10-07T16:45:34.808Z,73.05
2022-10-07T16:47:52.034Z,72.94
2022-10-07T16:50:11.127Z,73.24
2022-10-07T16:52:28.507Z,72.78
2022-10-07T16:54:45.752Z,73.70
2022-10-07T16:57:02.718Z,73.32
2022-10-07T16:59:22.286Z,73.60
2022-10-07T17:01:40.105Z,75.05
2022-10-07T17:03:58.287Z,75.17
2022-10-07T17:06:16.324Z,74.42
2022-10-07T17:08:39.298Z,75.04
2022-10-07T17:10:58.126Z,74.94
2022-10-07T17:13:16.082Z,76.80
2022-10-07T17:15:33.347Z,75.45
2022-10-07T17:17:50.357Z,75.71
2022-10-07T17:20:09.757Z,75.84
2022-10-07T17:22:27.442Z,77.34
2022-10-07T17:24:47.765Z,75.66
2022-10-07T17:27:04.877Z,77.46
2022-10-07T17:29:23.331Z,76.55
2022-10-07T17:31:40.676Z,76.99
2022-10-07T17:33:57.769Z,75.39
2022-10-07T17:36:14.855Z,75.96
2022-10-07T17:38:31.877Z,77.11
2022-10-07T17:40:48.866Z,77.96
2022-10-07T17:43:06.455Z,77.85
2022-10-07T17:45:24.682Z,77.72
2022-10-07T17:47:41.621Z,78.38
2022-10-07T17:49:59.118Z,78.15
2022-10-07T17:52:16.173Z,77.92
2022-10-07T17:54:34.760Z,78.75
2022-10-07T17:59:22.386Z,79.57
2022-10-07T18:01:39.332Z,79.22
2022-10-07T18:03:57.614Z,78.90
2022-10-07T18:06:14.842Z,79.10
2022-10-07T18:08:32.451Z,79.79
2022-10-07T18:10:49.505Z,79.91
2022-10-07T18:13:06.783Z,79.82
2022-10-07T18:15:24.054Z,80.19
2022-10-07T18:17:41.014Z,79.96
2022-10-07T18:19:59.023Z,81.04
2022-10-07T18:22:17.425Z,80.84
2022-10-07T18:24:34.779Z,80.81
2022-10-07T18:26:51.610Z,80.25
2022-10-07T18:29:08.876Z,80.74
2022-10-07T18:31:26.997Z,80.96
2022-10-07T18:33:44.138Z,81.42
2022-10-07T18:36:02.181Z,80.88
2022-10-07T18:38:19.299Z,81.39
2022-10-07T18:40:36.522Z,81.20
2022-10-07T18:42:53.842Z,80.91
2022-10-07T18:45:12.435Z,80.98
2022-10-07T18:47:29.726Z,80.82
2022-10-07T18:49:46.985Z,80.88
2022-10-07T18:52:05.290Z,80.99
2022-10-07T18:54:22.347Z,81.59
2022-10-07T18:56:41.284Z,81.75
2022-10-07T18:58:58.950Z,81.69
2022-10-07T19:01:17.490Z,81.74
2022-10-07T19:03:35.317Z,81.76
2022-10-07T19:05:52.260Z,81.73
2022-10-07T19:08:09.582Z,82.27
2022-10-07T19:10:30.338Z,82.08
2022-10-07T19:12:47.904Z,82.62
2022-10-07T19:15:05.332Z,82.50
2022-10-07T19:17:22.189Z,82.44
2022-10-07T19:19:39.144Z,82.32
2022-10-07T19:21:56.456Z,82.49
2022-10-07T19:24:13.526Z,82.76
2022-10-07T19:26:32.221Z,82.08
2022-10-07T19:28:49.846Z,82.70
2022-10-07T19:31:07.259Z,82.40
2022-10-07T19:33:24.503Z,82.28
2022-10-07T19:35:41.803Z,82.65
2022-10-07T19:37:59.178Z,82.86
2022-10-07T19:40:16.255Z,82.89
2022-10-07T19:42:33.311Z,84.18
2022-10-07T19:44:51.643Z,83.75
2022-10-07T19:47:08.663Z,83.42
2022-10-07T19:49:25.851Z,83.65
2022-10-07T19:51:43.913Z,84.68
2022-10-07T19:54:01.188Z,84.50
2022-10-07T19:56:18.517Z,83.79
2022-10-07T19:58:35.555Z,83.50
2022-10-07T20:00:53.032Z,84.76
2022-10-07T20:03:10.116Z,83.60
2022-10-07T20:05:27.423Z,84.55
2022-10-07T20:07:44.977Z,84.11
2022-10-07T20:10:02.310Z,84.67
2022-10-07T20:12:21.824Z,84.86
2022-10-07T20:14:39.125Z,84.58
2022-10-07T20:16:57.487Z,83.98
2022-10-07T20:19:15.592Z,85.25
2022-10-07T20:21:32.617Z,85.18
2022-10-07T20:23:49.516Z,84.82
2022-10-07T20:26:06.761Z,84.44
2022-10-07T20:28:23.818Z,84.83
2022-10-07T20:30:40.952Z,85.05
2022-10-07T20:32:57.939Z,85.25
2022-10-07T20:35:17.867Z,84.56
2022-10-07T20:37:35.174Z,85.94
2022-10-07T20:39:52.253Z,84.85
2022-10-07T20:42:09.726Z,84.36
2022-10-07T20:44:26.820Z,84.97
2022-10-07T20:46:45.513Z,84.12
2022-10-07T20:49:02.469Z,84.34
2022-10-07T20:51:19.596Z,84.46
2022-10-07T20:53:37.487Z,84.21
2022-10-07T20:55:54.583Z,85.80
2022-10-07T20:58:12.004Z,85.82
2022-10-07T21:00:29.331Z,86.00
2022-10-07T21:02:46.742Z,85.46
2022-10-07T21:05:04.081Z,85.92
2022-10-07T21:07:21.028Z,85.38
2022-10-07T21:09:38.495Z,85.26
2022-10-07T21:11:56.874Z,84.88
2022-10-07T21:14:14.294Z,84.91
2022-10-07T21:16:31.660Z,85.04
2022-10-07T21:18:50.968Z,85.67
2022-10-07T21:21:10.246Z,85.71
2022-10-07T21:23:30.590Z,85.29
2022-10-07T21:25:47.957Z,85.39
2022-10-07T21:28:05.399Z,86.75
2022-10-07T21:30:22.517Z,85.42
2022-10-07T21:32:40.881Z,86.46
2022-10-07T21:34:58.126Z,86.21
2022-10-07T21:37:18.088Z,85.79
2022-10-07T21:39:35.781Z,86.91
2022-10-07T21:41:53.043Z,86.26
2022-10-07T21:44:18.859Z,86.59
2022-10-07T21:46:37.191Z,86.83
2022-10-07T21:48:57.542Z,86.68
2022-10-07T21:51:14.538Z,86.56
2022-10-07T21:53:31.793Z,86.26
2022-10-07T21:55:49.107Z,85.81
2022-10-07T21:58:09.556Z,87.27
2022-10-07T22:00:29.807Z,86.77
2022-10-07T22:02:47.748Z,87.32
2022-10-07T22:05:04.977Z,86.23
2022-10-07T22:07:24.943Z,86.05
2022-10-07T22:09:43.038Z,87.46
2022-10-07T22:12:01.977Z,87.26
2022-10-07T22:14:19.332Z,87.02
2022-10-07T22:16:36.809Z,87.36
2022-10-07T22:18:54.312Z,87.26
2022-10-07T22:21:14.041Z,87.20
2022-10-07T22:23:31.955Z,86.20
2022-10-07T22:25:50.429Z,87.67
2022-10-07T22:28:08.544Z,87.78
2022-10-07T22:30:25.846Z,86.67
2022-10-07T22:32:42.752Z,86.48
2022-10-07T22:35:00.552Z,87.86
2022-10-07T22:37:17.824Z,87.95
2022-10-07T22:39:36.216Z,86.91
2022-10-07T22:42:01.829Z,87.82
2022-10-07T22:44:19.210Z,88.08
2022-10-07T22:46:36.764Z,87.26
2022-10-07T22:48:53.966Z,86.69
2022-10-07T22:51:11.087Z,87.31
2022-10-07T22:53:29.047Z,86.71
2022-10-07T22:55:46.447Z,87.66
2022-10-07T22:58:03.378Z,88.04
2022-10-07T23:00:20.277Z,87.58
2022-10-07T23:02:37.786Z,87.45
2022-10-07T23:05:00.924Z,86.32
2022-10-07T23:07:18.293Z,86.67
2022-10-07T23:09:35.296Z,86.71
2022-10-07T23:11:53.500Z,86.78
2022-10-07T23:14:13.312Z,86.44
2022-10-07T23:16:30.381Z,86.66
2022-10-07T23:18:50.451Z,87.06
2022-10-07T23:21:07.781Z,86.96
2022-10-07T23:23:25.990Z,87.96
2022-10-07T23:25:46.112Z,87.98
2022-10-07T23:28:03.079Z,87.20
2022-10-07T23:30:21.234Z,87.69
2022-10-07T23:32:38.145Z,88.71
2022-10-07T23:34:56.416Z,87.87
2022-10-07T23:37:13.636Z,87.99
2022-10-07T23:39:33.790Z,88.86
2022-10-07T23:41:50.707Z,87.21
2022-10-07T23:44:07.816Z,87.17
2022-10-07T23:46:26.145Z,86.95
2022-10-07T23:48:44.577Z,87.73
2022-10-07T23:51:01.803Z,87.66
2022-10-07T23:53:18.910Z,87.83
2022-10-07T23:55:35.843Z,86.80
2022-10-07T23:57:53.127Z,87.57
